createdAt,value
2019-02-28T00:02:11.197Z,20.97
2019-02-28T00:04:41.427Z,21.57
2019-02-28T00:07:17.566Z,18.53
2019-02-28T00:09:46.231Z,23.37
2019-02-28T00:12:16.571Z,21.27
2019-02-28T00:14:46.827Z,21.93
2019-02-28T00:17:17.109Z,27.13
2019-02-28T00:19:47.351Z,23.07
2019-02-28T00:22:17.553Z,20.17
2019-02-28T00:24:47.636Z,22.60
2019-02-28T00:27:20.970Z,21.33
2019-02-28T00:29:49.857Z,16.60
2019-02-28T00:32:21.372Z,23.47
2019-02-28T00:34:52.086Z,20.90
2019-02-28T00:37:24.651Z,20.00
2019-02-28T00:39:54.330Z,26.17
2019-02-28T00:42:24.695Z,20.70
2019-02-28T00:44:55.081Z,21.13
2019-02-28T00:47:25.168Z,27.33
2019-02-28T00:50:01.820Z,21.57
2019-02-28T00:52:35.378Z,24.47
2019-02-28T00:55:04.096Z,21.60
2019-02-28T00:57:34.437Z,23.30
2019-02-28T01:00:06.273Z,21.03
2019-02-28T01:02:36.719Z,18.47
2019-02-28T01:05:07.159Z,20.53
2019-02-28T01:07:37.524Z,23.27
2019-02-28T01:10:09.384Z,19.93
2019-02-28T01:12:39.607Z,26.80
2019-02-28T01:15:11.091Z,19.77
2019-02-28T01:17:41.382Z,23.53
2019-02-28T01:20:14.892Z,22.03
2019-02-28T01:22:43.987Z,22.87
2019-02-28T01:25:14.643Z,31.73
2019-02-28T01:27:44.702Z,22.77
2019-02-28T01:30:15.337Z,20.80
2019-02-28T01:32:49.927Z,23.27
2019-02-28T01:35:17.851Z,28.67
2019-02-28T01:37:48.073Z,22.73
2019-02-28T01:40:18.294Z,20.43
2019-02-28T01:42:54.018Z,18.23
2019-02-28T01:45:20.399Z,22.83
2019-02-28T01:47:51.759Z,25.13
2019-02-28T01:50:22.698Z,19.17
2019-02-28T01:52:53.090Z,23.53
2019-02-28T01:55:23.415Z,19.87
2019-02-28T01:57:53.756Z,22.43
2019-02-28T02:00:24.485Z,20.43
2019-02-28T02:02:54.714Z,24.23
2019-02-28T02:05:24.919Z,22.30
2019-02-28T02:07:54.935Z,26.20
2019-02-28T02:10:25.167Z,24.20
2019-02-28T02:12:55.584Z,17.47
2019-02-28T02:15:25.839Z,19.17
2019-02-28T02:17:56.029Z,20.00
2019-02-28T02:20:26.919Z,19.00
2019-02-28T02:22:57.293Z,20.73
2019-02-28T02:25:27.499Z,19.80
2019-02-28T02:27:58.019Z,17.63
2019-02-28T02:30:28.479Z,17.83
2019-02-28T02:32:58.838Z,17.87
2019-02-28T02:35:29.124Z,16.43
2019-02-28T02:38:03.677Z,18.87
2019-02-28T02:40:31.185Z,19.70
2019-02-28T02:43:01.628Z,18.83
2019-02-28T02:45:31.694Z,19.17
2019-02-28T02:48:05.293Z,16.90
2019-02-28T02:50:35.769Z,21.40
2019-02-28T02:53:06.589Z,17.73
2019-02-28T02:55:37.043Z,19.03
2019-02-28T02:58:07.222Z,18.17
2019-02-28T03:00:37.356Z,20.80
2019-02-28T03:03:07.909Z,17.50
2019-02-28T03:05:38.168Z,16.90
2019-02-28T03:08:08.457Z,18.17
2019-02-28T03:10:38.886Z,18.60
2019-02-28T03:13:09.207Z,16.37
2019-02-28T03:15:39.428Z,19.30
2019-02-28T03:18:10.151Z,16.80
2019-02-28T03:20:42.326Z,16.63
2019-02-28T03:23:12.459Z,19.53
2019-02-28T03:25:42.889Z,19.13
2019-02-28T03:28:14.028Z,37.20
2019-02-28T03:33:27.778Z,16.53
2019-02-28T03:35:55.046Z,16.93
2019-02-28T03:38:25.148Z,16.47
2019-02-28T03:40:55.678Z,17.13
2019-02-28T03:43:25.883Z,16.60
2019-02-28T03:45:56.160Z,17.47
2019-02-28T03:48:26.509Z,13.57
2019-02-28T03:50:56.768Z,16.23
2019-02-28T03:53:27.002Z,17.07
2019-02-28T03:55:57.252Z,18.33
2019-02-28T03:58:27.493Z,15.90
2019-02-28T04:00:57.764Z,17.13
2019-02-28T04:03:33.441Z,17.27
2019-02-28T04:06:03.608Z,20.67
2019-02-28T04:08:32.441Z,16.50
2019-02-28T04:11:02.602Z,16.90
2019-02-28T04:13:33.004Z,14.90
2019-02-28T04:16:09.246Z,13.80
2019-02-28T04:18:35.154Z,15.77
2019-02-28T04:21:10.057Z,17.33
2019-02-28T04:23:37.453Z,19.27
2019-02-28T04:26:07.683Z,17.93
2019-02-28T04:28:37.783Z,15.37
2019-02-28T04:31:08.018Z,14.47
2019-02-28T04:33:39.346Z,16.30
2019-02-28T04:36:09.679Z,17.33
2019-02-28T04:38:39.875Z,15.27
2019-02-28T04:41:10.279Z,14.97
2019-02-28T04:43:41.552Z,18.23
2019-02-28T04:46:12.527Z,18.10
2019-02-28T04:48:45.664Z,19.97
2019-02-28T04:51:14.527Z,16.77
2019-02-28T04:53:44.963Z,14.93
2019-02-28T04:56:15.139Z,12.97
2019-02-28T04:58:45.524Z,21.33
2019-02-28T05:01:15.765Z,14.97
2019-02-28T05:03:46.111Z,15.57
2019-02-28T05:06:18.342Z,13.60
2019-02-28T05:08:48.706Z,13.30
2019-02-28T05:11:18.863Z,13.83
2019-02-28T05:13:49.415Z,14.27
2019-02-28T05:16:38.420Z,16.53
2019-02-28T05:19:10.710Z,13.83
2019-02-28T05:21:40.911Z,17.13
2019-02-28T05:24:11.383Z,16.63
2019-02-28T05:26:41.591Z,15.97
2019-02-28T05:29:12.826Z,15.83
2019-02-28T05:31:43.335Z,16.30
2019-02-28T05:34:16.029Z,13.80
2019-02-28T05:36:45.966Z,17.83
2019-02-28T05:39:16.205Z,16.27
2019-02-28T05:41:49.529Z,19.67
2019-02-28T05:44:18.545Z,20.50
2019-02-28T05:46:48.762Z,19.77
2019-02-28T05:49:19.107Z,15.47
2019-02-28T05:51:49.323Z,16.40
2019-02-28T05:54:20.432Z,22.10
2019-02-28T05:56:50.656Z,21.20
2019-02-28T05:59:26.145Z,19.50
2019-02-28T06:01:52.764Z,15.70
2019-02-28T06:04:23.286Z,18.00
2019-02-28T06:06:54.701Z,16.73
2019-02-28T06:09:26.085Z,17.07
2019-02-28T06:11:56.209Z,14.47
2019-02-28T06:14:27.637Z,20.93
2019-02-28T06:16:57.991Z,16.63
2019-02-28T06:19:28.327Z,17.07
2019-02-28T06:21:59.426Z,18.70
2019-02-28T06:24:31.221Z,18.80
2019-02-28T06:27:03.729Z,17.53
2019-02-28T06:29:33.327Z,17.00
2019-02-28T06:32:03.629Z,16.97
2019-02-28T06:34:34.146Z,20.13
2019-02-28T06:37:04.526Z,17.30
2019-02-28T06:39:35.199Z,20.80
2019-02-28T06:42:24.060Z,14.40
2019-02-28T06:44:53.979Z,15.93
2019-02-28T06:47:24.000Z,13.83
2019-02-28T06:49:54.124Z,15.10
2019-02-28T06:52:25.258Z,17.07
2019-02-28T06:54:56.240Z,19.70
2019-02-28T06:57:27.439Z,15.87
2019-02-28T06:59:58.077Z,15.90
2019-02-28T07:02:28.530Z,17.47
2019-02-28T07:05:00.275Z,12.20
2019-02-28T07:07:30.596Z,14.33
2019-02-28T07:10:01.215Z,15.27
2019-02-28T07:12:33.149Z,17.43
2019-02-28T07:15:03.501Z,14.70
2019-02-28T07:17:33.738Z,14.97
2019-02-28T07:20:04.002Z,21.20
2019-02-28T07:22:34.353Z,19.40
2019-02-28T07:25:04.923Z,23.60
2019-02-28T07:27:35.211Z,25.40
2019-02-28T07:30:06.398Z,50.23
2019-02-28T07:32:36.628Z,92.30
2019-02-28T07:35:07.370Z,25.00
2019-02-28T07:37:37.657Z,18.47
2019-02-28T07:40:09.107Z,28.90
2019-02-28T07:42:39.449Z,27.50
2019-02-28T07:45:12.132Z,17.50
2019-02-28T07:47:42.759Z,18.10
2019-02-28T07:50:13.163Z,14.90
2019-02-28T07:52:43.505Z,17.67
2019-02-28T07:55:13.964Z,17.57
2019-02-28T07:57:44.271Z,27.80
2019-02-28T08:00:18.418Z,26.87
2019-02-28T08:02:49.038Z,24.70
2019-02-28T08:05:19.422Z,39.97
2019-02-28T08:07:52.663Z,29.60
2019-02-28T08:10:22.336Z,33.07
2019-02-28T08:12:52.636Z,30.73
2019-02-28T08:15:23.618Z,32.50
2019-02-28T08:17:54.023Z,22.37
2019-02-28T08:20:24.327Z,21.37
2019-02-28T08:22:56.897Z,18.30
2019-02-28T08:25:26.652Z,24.13
2019-02-28T08:27:59.820Z,19.90
2019-02-28T08:30:28.754Z,19.97
2019-02-28T08:32:58.918Z,22.27
2019-02-28T08:35:34.061Z,18.83
2019-02-28T08:38:01.283Z,15.07
2019-02-28T08:40:31.427Z,18.30
2019-02-28T08:43:01.671Z,16.33
2019-02-28T08:45:33.498Z,14.83
2019-02-28T08:48:03.816Z,16.80
2019-02-28T08:50:34.191Z,14.90
2019-02-28T08:53:04.492Z,18.97
2019-02-28T08:55:38.338Z,15.80
2019-02-28T08:58:07.772Z,16.07
2019-02-28T09:00:38.097Z,17.57
2019-02-28T09:03:08.408Z,15.77
2019-02-28T09:05:38.766Z,15.17
2019-02-28T09:08:22.448Z,19.87
2019-02-28T09:10:51.855Z,13.97
2019-02-28T09:13:22.350Z,14.00
2019-02-28T09:15:52.733Z,17.37
2019-02-28T09:18:23.193Z,16.97
2019-02-28T09:20:54.029Z,16.37
2019-02-28T09:23:24.610Z,15.37
2019-02-28T09:25:56.738Z,14.90
2019-02-28T09:28:26.741Z,16.53
2019-02-28T09:30:57.122Z,16.57
2019-02-28T09:33:27.565Z,16.33
2019-02-28T09:35:57.872Z,16.03
2019-02-28T09:38:28.430Z,18.60
2019-02-28T09:41:01.415Z,12.70
2019-02-28T09:43:30.729Z,13.20
2019-02-28T09:46:01.130Z,13.80
2019-02-28T09:48:33.993Z,12.57
2019-02-28T09:51:03.522Z,21.20
2019-02-28T09:53:33.867Z,15.63
2019-02-28T09:56:09.070Z,15.37
2019-02-28T09:58:36.129Z,18.53
2019-02-28T10:01:07.024Z,18.83
2019-02-28T10:03:37.555Z,18.03
2019-02-28T10:06:08.011Z,18.00
2019-02-28T10:08:38.468Z,24.37
2019-02-28T10:11:09.095Z,19.07
2019-02-28T10:13:39.513Z,20.03
2019-02-28T10:16:09.815Z,20.97
2019-02-28T10:18:40.146Z,14.97
2019-02-28T10:21:10.539Z,22.70
2019-02-28T10:23:42.810Z,17.97
2019-02-28T10:26:14.308Z,20.33
2019-02-28T10:28:45.108Z,25.40
2019-02-28T10:31:15.531Z,18.23
2019-02-28T10:33:46.119Z,18.77
2019-02-28T10:36:16.395Z,17.70
2019-02-28T10:38:47.090Z,16.67
2019-02-28T10:41:17.608Z,14.93
2019-02-28T10:43:52.070Z,16.23
2019-02-28T10:46:20.341Z,12.97
2019-02-28T10:48:51.165Z,15.83
2019-02-28T10:51:21.685Z,17.93
2019-02-28T10:53:52.106Z,14.60
2019-02-28T10:56:22.595Z,13.00
2019-02-28T10:58:53.841Z,19.43
2019-02-28T11:01:24.750Z,14.70
2019-02-28T11:03:55.474Z,16.93
2019-02-28T11:06:28.282Z,14.63
2019-02-28T11:08:57.900Z,15.50
2019-02-28T11:11:28.282Z,13.17
2019-02-28T11:13:59.155Z,15.47
2019-02-28T11:16:29.858Z,17.93
2019-02-28T11:19:00.493Z,14.47
2019-02-28T11:21:30.770Z,13.63
2019-02-28T11:24:01.198Z,17.07
2019-02-28T11:26:31.689Z,17.33
2019-02-28T11:29:03.136Z,16.77
2019-02-28T11:31:34.292Z,14.10
2019-02-28T11:34:04.697Z,15.27
2019-02-28T11:36:35.094Z,14.23
2019-02-28T11:39:07.317Z,12.90
2019-02-28T11:41:37.665Z,13.57
2019-02-28T11:44:09.236Z,13.23
2019-02-28T11:46:40.360Z,14.83
2019-02-28T11:49:10.610Z,14.15
2019-02-28T11:51:41.111Z,16.95
2019-02-28T11:54:12.313Z,12.40
2019-02-28T11:56:43.873Z,13.70
2019-02-28T11:59:14.240Z,15.00
2019-02-28T12:01:47.406Z,14.95
2019-02-28T12:04:16.735Z,16.15
2019-02-28T12:06:47.156Z,15.43
2019-02-28T12:09:19.263Z,12.82
2019-02-28T12:11:50.424Z,14.85
2019-02-28T12:14:21.299Z,11.65
2019-02-28T12:16:53.653Z,15.23
2019-02-28T12:19:23.738Z,13.85
2019-02-28T12:21:54.832Z,14.28
2019-02-28T12:24:25.359Z,16.52
2019-02-28T12:26:55.704Z,12.60
2019-02-28T12:29:25.988Z,12.58
2019-02-28T12:31:56.586Z,13.72
2019-02-28T12:34:28.736Z,12.10
2019-02-28T12:36:59.908Z,14.05
2019-02-28T12:39:33.389Z,10.88
2019-02-28T12:42:02.623Z,9.65
2019-02-28T12:44:32.978Z,9.50
2019-02-28T12:47:06.494Z,10.72
2019-02-28T12:49:35.456Z,10.48
2019-02-28T12:52:06.050Z,11.88
2019-02-28T12:54:36.447Z,9.05
2019-02-28T12:57:07.008Z,10.48
2019-02-28T12:59:37.409Z,11.60
2019-02-28T13:02:08.640Z,11.22
2019-02-28T13:04:38.870Z,11.63
2019-02-28T13:07:09.007Z,9.83
2019-02-28T13:09:39.874Z,10.82
2019-02-28T13:12:11.943Z,10.08
2019-02-28T13:14:41.822Z,8.10
2019-02-28T13:17:11.888Z,8.15
2019-02-28T13:19:42.121Z,9.48
2019-02-28T13:22:12.159Z,8.08
2019-02-28T13:24:42.419Z,8.05
2019-02-28T13:27:14.159Z,13.62
2019-02-28T13:29:44.095Z,7.40
2019-02-28T13:32:13.964Z,7.97
2019-02-28T13:34:43.949Z,10.30
2019-02-28T13:37:14.028Z,9.53
2019-02-28T13:39:44.782Z,10.95
2019-02-28T13:42:17.807Z,6.72
2019-02-28T13:44:47.798Z,7.97
2019-02-28T13:47:17.880Z,7.08
2019-02-28T13:49:49.829Z,8.05
2019-02-28T13:52:20.910Z,10.88
2019-02-28T13:54:51.043Z,6.35
2019-02-28T13:57:20.911Z,9.53
2019-02-28T13:59:50.832Z,11.10
2019-02-28T14:02:20.878Z,7.75
2019-02-28T14:04:50.859Z,9.28
2019-02-28T14:07:20.802Z,6.92
2019-02-28T14:09:56.998Z,8.25
2019-02-28T14:12:22.356Z,7.67
2019-02-28T14:14:52.298Z,8.20
2019-02-28T14:17:22.254Z,8.03
2019-02-28T14:19:52.745Z,7.65
2019-02-28T14:22:23.542Z,11.33
2019-02-28T14:24:53.424Z,13.53
2019-02-28T14:27:25.108Z,8.23
2019-02-28T14:29:55.063Z,12.63
2019-02-28T14:32:25.031Z,10.20
2019-02-28T14:34:57.322Z,9.40
2019-02-28T14:37:26.579Z,10.07
2019-02-28T14:39:56.529Z,12.73
2019-02-28T14:42:26.462Z,10.50
2019-02-28T14:44:56.463Z,15.33
2019-02-28T14:47:28.408Z,10.57
2019-02-28T14:49:58.008Z,10.13
2019-02-28T14:52:28.120Z,8.40
2019-02-28T14:54:58.350Z,11.83
2019-02-28T14:57:28.244Z,10.63
2019-02-28T14:59:59.985Z,11.77
2019-02-28T15:02:29.802Z,10.60
2019-02-28T15:04:59.734Z,13.87
2019-02-28T15:07:29.799Z,13.13
2019-02-28T15:10:01.770Z,10.17
2019-02-28T15:12:31.366Z,10.80
2019-02-28T15:15:01.315Z,12.10
2019-02-28T15:17:31.396Z,9.00
2019-02-28T15:20:01.531Z,9.97
2019-02-28T15:22:31.467Z,14.73
2019-02-28T15:25:01.573Z,12.03
2019-02-28T15:27:31.519Z,12.73
2019-02-28T15:30:01.467Z,12.47
2019-02-28T15:32:31.380Z,14.73
2019-02-28T15:35:01.808Z,12.97
2019-02-28T15:37:33.648Z,12.30
2019-02-28T15:40:03.338Z,16.13
2019-02-28T15:42:33.258Z,16.63
2019-02-28T15:45:03.909Z,14.70
2019-02-28T15:47:34.916Z,16.07
2019-02-28T15:50:05.648Z,9.97
2019-02-28T15:52:36.711Z,13.57
2019-02-28T15:55:07.492Z,11.70
2019-02-28T15:57:37.501Z,9.37
2019-02-28T16:00:09.674Z,12.43
2019-02-28T16:02:42.099Z,17.20
2019-02-28T16:05:11.556Z,13.07
2019-02-28T16:07:41.855Z,15.57
2019-02-28T16:10:14.215Z,11.30
2019-02-28T16:12:46.609Z,12.77
2019-02-28T16:15:17.312Z,13.57
2019-02-28T16:17:47.288Z,12.10
2019-02-28T16:20:17.360Z,11.60
2019-02-28T16:22:52.130Z,10.30
2019-02-28T16:25:24.677Z,11.53
2019-02-28T16:27:54.850Z,8.13
2019-02-28T16:30:25.019Z,11.30
2019-02-28T16:32:55.107Z,12.37
2019-02-28T16:35:25.242Z,7.53
2019-02-28T16:37:55.175Z,11.00
2019-02-28T16:40:26.884Z,10.50
2019-02-28T16:42:56.905Z,7.53
2019-02-28T16:45:30.464Z,10.63
2019-02-28T16:48:02.988Z,7.27
2019-02-28T16:50:33.163Z,9.23
2019-02-28T16:53:03.036Z,5.47
2019-02-28T16:55:33.201Z,5.70
2019-02-28T16:58:03.620Z,5.30
2019-02-28T17:00:33.645Z,4.70
2019-02-28T17:03:04.009Z,7.93
2019-02-28T17:05:35.507Z,9.07
2019-02-28T17:08:06.812Z,6.67
2019-02-28T17:10:40.216Z,4.80
2019-02-28T17:13:31.587Z,6.87
2019-02-28T17:16:37.003Z,4.90
2019-02-28T17:19:08.548Z,8.30
2019-02-28T17:21:39.724Z,7.83
2019-02-28T17:24:12.259Z,8.83
2019-02-28T17:27:02.314Z,6.60
2019-02-28T17:29:51.557Z,18.00
2019-02-28T17:32:21.754Z,7.07
2019-02-28T17:34:51.731Z,6.23
2019-02-28T17:37:25.995Z,5.93
2019-02-28T17:39:53.777Z,8.93
2019-02-28T17:42:23.747Z,6.73
2019-02-28T17:45:19.796Z,10.00
2019-02-28T17:48:37.611Z,8.13
2019-02-28T17:51:18.745Z,14.17
2019-02-28T17:54:22.430Z,11.50
2019-02-28T17:57:29.002Z,9.43
2019-02-28T18:00:41.564Z,9.30
2019-02-28T18:04:08.187Z,9.23
2019-02-28T18:07:05.273Z,11.37
2019-02-28T18:10:03.175Z,10.27
2019-02-28T18:13:08.988Z,10.23
2019-02-28T18:16:21.380Z,8.20
2019-02-28T18:19:20.067Z,8.03
2019-02-28T18:22:37.374Z,9.43
2019-02-28T18:25:34.943Z,9.13
2019-02-28T18:29:01.928Z,6.73
2019-02-28T18:31:31.995Z,9.27
2019-02-28T18:34:22.206Z,8.60
2019-02-28T18:36:55.523Z,7.33
2019-02-28T18:39:25.478Z,7.27
2019-02-28T18:41:55.553Z,6.80
2019-02-28T18:44:25.464Z,8.57
2019-02-28T18:46:55.371Z,5.60
2019-02-28T18:49:26.645Z,9.63
2019-02-28T18:51:56.982Z,5.80
2019-02-28T18:54:27.055Z,8.23
2019-02-28T18:56:57.143Z,6.10
2019-02-28T18:59:27.131Z,6.07
2019-02-28T19:01:57.150Z,8.57
2019-02-28T19:04:27.039Z,7.03
2019-02-28T19:06:57.115Z,8.10
2019-02-28T19:09:27.180Z,5.57
2019-02-28T19:11:58.236Z,12.03
2019-02-28T19:14:28.127Z,5.33
2019-02-28T19:16:58.138Z,6.57
2019-02-28T19:19:28.084Z,6.77
2019-02-28T19:21:58.217Z,4.50
2019-02-28T19:24:28.219Z,5.67
2019-02-28T19:26:58.238Z,6.30
2019-02-28T19:29:28.178Z,4.83
2019-02-28T19:31:58.620Z,3.80
2019-02-28T19:34:28.778Z,4.63
2019-02-28T19:36:59.427Z,4.53
2019-02-28T19:39:29.456Z,4.83
2019-02-28T19:41:59.529Z,4.83
2019-02-28T19:44:29.405Z,7.77
2019-02-28T19:46:59.328Z,6.07
2019-02-28T19:49:29.823Z,5.53
2019-02-28T19:51:59.823Z,5.80
2019-02-28T19:54:29.800Z,4.50
2019-02-28T19:56:59.960Z,8.17
2019-02-28T19:59:29.853Z,3.30
2019-02-28T20:01:59.833Z,8.07
2019-02-28T20:04:30.107Z,4.13
2019-02-28T20:07:00.148Z,4.40
2019-02-28T20:09:30.112Z,3.63
2019-02-28T20:11:59.997Z,6.73
2019-02-28T20:14:30.090Z,3.70
2019-02-28T20:17:00.060Z,6.60
2019-02-28T20:19:29.921Z,3.77
2019-02-28T20:21:59.840Z,3.40
2019-02-28T20:24:29.721Z,7.87
2019-02-28T20:26:59.691Z,6.50
2019-02-28T20:29:29.801Z,4.57
2019-02-28T20:32:03.184Z,5.50
2019-02-28T20:34:33.473Z,5.73
2019-02-28T20:37:03.538Z,6.10
2019-02-28T20:39:33.633Z,6.97
2019-02-28T20:42:04.097Z,4.33
2019-02-28T20:44:33.995Z,7.57
2019-02-28T20:47:03.951Z,5.70
2019-02-28T20:49:33.819Z,4.87
2019-02-28T20:52:08.321Z,4.30
2019-02-28T20:54:38.536Z,4.20
2019-02-28T20:57:08.485Z,5.73
2019-02-28T20:59:38.412Z,4.33
2019-02-28T21:02:08.619Z,4.57
2019-02-28T21:04:38.531Z,5.80
2019-02-28T21:07:09.552Z,6.17
2019-02-28T21:09:45.004Z,4.73
2019-02-28T21:12:11.268Z,6.43
2019-02-28T21:14:41.635Z,7.07
2019-02-28T21:17:11.841Z,8.47
2019-02-28T21:19:42.455Z,5.50
2019-02-28T21:22:12.823Z,6.10
2019-02-28T21:24:43.221Z,6.07
2019-02-28T21:27:19.000Z,7.70
2019-02-28T21:29:49.223Z,5.90
2019-02-28T21:32:19.539Z,4.83
2019-02-28T21:34:49.781Z,4.93
2019-02-28T21:37:22.314Z,8.47
2019-02-28T21:39:52.558Z,4.87
2019-02-28T21:42:23.000Z,7.13
2019-02-28T21:44:53.108Z,6.47
2019-02-28T21:47:23.325Z,5.83
2019-02-28T21:49:53.582Z,7.53
2019-02-28T21:52:23.719Z,5.97
2019-02-28T21:54:54.415Z,7.37
2019-02-28T21:57:24.738Z,7.73
2019-02-28T21:59:55.255Z,3.70
2019-02-28T22:02:25.507Z,7.63
2019-02-28T22:04:55.788Z,7.63
2019-02-28T22:07:26.230Z,4.97
2019-02-28T22:09:56.451Z,5.30
2019-02-28T22:12:27.593Z,5.10
2019-02-28T22:14:57.919Z,5.40
2019-02-28T22:17:28.178Z,5.30
2019-02-28T22:19:58.396Z,5.27
2019-02-28T22:22:28.539Z,4.70
2019-02-28T22:24:58.428Z,4.47
2019-02-28T22:27:28.791Z,3.87
2019-02-28T22:30:00.753Z,5.27
2019-02-28T22:32:43.376Z,7.23
2019-02-28T22:35:27.445Z,4.53
2019-02-28T22:37:57.771Z,9.07
2019-02-28T22:40:27.684Z,8.67
2019-02-28T22:42:57.912Z,5.17
2019-02-28T22:45:27.799Z,4.17
2019-02-28T22:47:57.693Z,4.20
2019-02-28T22:50:27.603Z,4.33
2019-02-28T22:52:57.485Z,4.37
2019-02-28T22:55:27.376Z,5.83
2019-02-28T22:57:57.740Z,5.77
2019-02-28T23:00:46.963Z,2.97
2019-02-28T23:03:17.284Z,3.37
2019-02-28T23:05:47.471Z,4.90
2019-02-28T23:08:17.820Z,4.63
2019-02-28T23:10:48.223Z,8.70
2019-02-28T23:13:18.494Z,3.63
2019-02-28T23:15:48.608Z,3.90
2019-02-28T23:18:18.747Z,5.73
2019-02-28T23:20:49.051Z,4.40
2019-02-28T23:23:19.113Z,5.07
2019-02-28T23:25:48.997Z,6.20
2019-02-28T23:28:30.276Z,9.00
2019-02-28T23:31:27.863Z,5.73
2019-02-28T23:34:01.568Z,7.60
2019-02-28T23:36:31.072Z,3.60
2019-02-28T23:39:00.954Z,4.93
2019-02-28T23:41:30.873Z,2.77
2019-02-28T23:44:00.815Z,5.17
2019-02-28T23:46:30.711Z,4.50
2019-02-28T23:49:00.643Z,4.67
2019-02-28T23:51:30.539Z,2.73
2019-02-28T23:54:00.419Z,3.33
2019-02-28T23:56:30.387Z,8.03
2019-02-28T23:59:00.271Z,4.83
